Aviation Digital Data Service (ADDS)

Output produced by METARs form (0759 UTC 11 December 2016)
found at http://aviationweather.gov/adds/metars/
 
KEKN 110538Z 1106/1206 00000KT P6SM OVC200 WS020/25030KT 
     FM111400 17005KT P6SM OVC090 
     FM120400 17007KT 5SM -RA OVC035